• Join FlightAware (Why Join?)
  • Login
  • US Flag 
12:40PM EDT


 

Airport Tracker/Info


-or-


 

Live Flight TrackerFlight Track Log ✈ SKW5646 ✈ 26-Apr-2013 ✈ KSBA - KSFO

Flight Track Log - Related Links

Times and Time Zones

All times are in EDT time to prevent confusion due to time zone crossing. See the SKW5646 flight status page for this flight to view local times or setup timezone preferences in your user account.

Time Position Orientation Groundspeed Altitude Reporting Facility
EDT Latitude Longitude Course Direction KTS MPH feet Rate Location/Type
05:49PM 34.4269 -119.8722 275° West 129 148 1,000  Level Los Angeles Center
05:50PM 34.4253 -119.9283 268° West 175 201 2,400 1,500 Climbing Los Angeles Center
05:51PM 34.4200 -119.9947 265° West 188 216 4,200 1,440 Climbing Los Angeles Center
05:52PM 34.4169 -120.0497 266° West 195 224 5,400 1,500 Climbing Los Angeles Center
05:53PM 34.4810 -120.0002 298° West  Level FlightAware Approximate
05:54PM 34.5161 -120.0820 297° West  Level FlightAware Approximate
05:54PM 34.4192 -120.1489 272° West 211 243 7,400  Level Los Angeles Center
05:55PM 34.4625 -120.2061 313° West 228 262 8,800 1,260 Climbing Los Angeles Center
05:56PM 34.5153 -120.2483 327° Northwest 226 260 10,300 1,200 Climbing Los Angeles Center
05:57PM 34.5850 -120.2983 329° Northwest 237 273 11,600 1,260 Climbing Los Angeles Center
05:58PM 34.6433 -120.3456 326° Northwest 245 282 13,000 1,260 Climbing Los Angeles Center
05:59PM 34.6975 -120.3928 324° Northwest 244 281 14,300 1,200 Climbing Los Angeles Center
06:00PM 34.7644 -120.4497 325° Northwest 242 278 15,600 1,200 Climbing Los Angeles Center
06:01PM 34.8219 -120.4958 327° Northwest 246 283 16,800 1,020 Climbing Los Angeles Center
06:02PM 34.8764 -120.5411 326° Northwest 248 285 17,800 900 Climbing Los Angeles Center
06:03PM 34.9444 -120.5972 326° Northwest 248 285 18,900 960 Climbing Los Angeles Center
06:04PM 35.0003 -120.6436 326° Northwest 245 282 20,000 1,020 Climbing Los Angeles Center
06:05PM 35.0675 -120.6994 326° Northwest 245 282 21,100 900 Climbing Los Angeles Center
06:06PM 35.1244 -120.7461 326° Northwest 247 284 21,900 420 Climbing Los Angeles Center
06:07PM 35.1842 -120.7961 326° Northwest 261 300 22,000  Climbing Los Angeles Center
06:08PM 35.2481 -120.8489 326° Northwest 277 319 22,000  Level Los Angeles Center
06:09PM 35.3111 -120.9011 326° Northwest 275 316 22,000  Level Los Angeles Center
06:10PM 35.3608 -120.9436 325° Northwest 274 315 22,000  Level Los Angeles Center
06:11PM 35.3911 -120.9703 324° Northwest 273 314 22,000  Level Oakland Center
06:12PM 35.4539 -121.0228 326° Northwest 273 314 22,000  Level Oakland Center
06:13PM 35.5289 -121.0875 325° Northwest 272 313 22,000  Level Oakland Center
06:14PM 35.5919 -121.1403 326° Northwest 272 313 22,000  Level Oakland Center
06:15PM 35.6558 -121.1944 325° Northwest 277 319 22,000  Level Oakland Center
06:16PM 35.7183 -121.2464 326° Northwest 272 313 22,000  Level Oakland Center
06:17PM 35.7814 -121.2994 326° Northwest 273 314 22,000  Level Oakland Center
06:18PM 35.8444 -121.3528 326° Northwest 274 315 22,000  Level Oakland Center
06:19PM 35.9067 -121.4069 325° Northwest 273 314 22,000  Level Oakland Center
06:20PM 35.9703 -121.4606 326° Northwest 274 315 22,000  Level Oakland Center
06:21PM 36.0456 -121.5261 325° Northwest 277 319 22,000 -420 Level Oakland Center
06:22PM 36.1117 -121.5822 326° Northwest 288 331 21,200 -840 Descending Oakland Center
06:23PM 36.1803 -121.6392 326° Northwest 298 343 20,300 -840 Descending Oakland Center
06:24PM 36.2564 -121.6817 336° Northwest 299 344 19,600 -780 Descending Oakland Center
06:25PM 36.3303 -121.7194 338° Northwest 289 333 18,800 -840 Descending Oakland Center
06:26PM 36.4000 -121.7500 341° North 285 328 18,100 -900 Descending Northern Cal TRACON
06:27PM 36.4667 -121.8000 329° Northwest 290 334 17,200 -1,020 Descending Northern Cal TRACON
06:28PM 36.5333 -121.8333 338° Northwest 293 337 16,200 -1,200 Descending Northern Cal TRACON
06:29PM 36.6167 -121.8667 342° North 293 337 14,900 -1,200 Descending Northern Cal TRACON
06:30PM 36.7000 -121.9000 342° North 304 350 13,700 -1,200 Descending Northern Cal TRACON
06:31PM 36.7833 -121.9333 342° North 303 349 12,600 -1,080 Descending Northern Cal TRACON
06:32PM 36.8500 -121.9500 349° North 300 345 11,700 -1,140 Descending Northern Cal TRACON
06:32PM 36.8800 -121.9675 335° Northwest 299 344 11,100 -1,140 Descending Oakland Center
06:33PM 36.9583 -121.9994 342° North 296 341 10,000 -1,080 Descending Oakland Center
06:34PM 37.0364 -122.0319 342° North 294 338 9,000 -960 Descending Oakland Center
06:35PM 37.1281 -122.0706 341° North 289 333 8,100 -540 Descending Oakland Center
06:36PM 37.2008 -122.1014 341° North 278 320 8,000 -300 Descending Oakland Center
06:37PM 37.2678 -122.1303 341° North 258 297 7,600 -720 Descending Oakland Center
06:38PM 37.3311 -122.1564 342° North 243 280 6,600 -1,020 Descending Oakland Center
06:39PM 37.3928 -122.1808 343° North 234 269 5,600 -960 Descending Oakland Center
06:40PM 37.4586 -122.2094 341° North 249 287 4,700 -960 Descending Oakland Center
06:41PM 37.5228 -122.2339 343° North 247 284 3,700 -1,320 Descending Oakland Center
06:43PM 37.5689 -122.2619 334° Northwest 214 246 2,100 -1,320 Descending Oakland Center
06:44PM 37.5919 -122.3169 298° West 164 189 1,000 -1,080 Descending Oakland Center